Time;durP1;ratioP1;P1;durP2;ratioP2;P2;SDS_P1;SDS_P2;PMS_P1;PMS_P2;Temp;Humidity;BMP_temperature;BMP_pressure;BME280_temperature;BME280_humidity;BME280_pressure;Samples;Min_cycle;Max_cycle;Signal;HPM_P1;HPM_P2
2022/02/15 00:01:34;;;;;;;5.63;0.80;;;6.10;99.90;;;;;;20674685;28;20061;-44
2022/02/15 00:11:36;;;;;;;1.42;0.55;;;6.10;99.90;;;;;;20654359;28;20062;-44
2022/02/15 00:21:39;;;;;;;2.17;0.50;;;6.00;99.90;;;;;;20683908;28;20046;-44
2022/02/15 00:31:40;;;;;;;0.85;0.50;;;6.00;99.90;;;;;;20683358;28;20045;-44
2022/02/15 00:41:42;;;;;;;1.25;0.40;;;6.00;99.90;;;;;;20654193;28;20090;-44
2022/02/15 00:51:43;;;;;;;0.60;0.30;;;5.90;99.90;;;;;;20682321;28;20052;-44
2022/02/15 01:01:44;;;;;;;1.50;0.50;;;5.90;99.90;;;;;;20664059;28;20240;-44
2022/02/15 01:11:45;;;;;;;0.85;0.30;;;5.90;99.90;;;;;;20649822;28;20042;-44
2022/02/15 01:21:46;;;;;;;2.78;0.50;;;5.90;99.90;;;;;;20653277;28;20439;-44
2022/02/15 01:31:49;;;;;;;3.30;1.00;;;6.00;99.90;;;;;;20645781;28;20127;-44
2022/02/15 01:41:50;;;;;;;4.10;1.08;;;5.90;99.90;;;;;;20645101;28;20441;-44
2022/02/15 01:51:52;;;;;;;3.10;1.50;;;5.80;99.90;;;;;;20657176;28;20045;-44
2022/02/15 02:01:53;;;;;;;4.72;2.53;;;5.90;99.90;;;;;;20648008;28;20079;-44
2022/02/15 02:11:54;;;;;;;4.38;1.73;;;6.00;99.90;;;;;;20653312;28;20544;-44
2022/02/15 02:21:55;;;;;;;4.60;2.22;;;6.10;99.90;;;;;;20647391;28;20058;-44
2022/02/15 02:31:56;;;;;;;5.38;2.45;;;6.20;99.90;;;;;;20646080;28;20402;-44
2022/02/15 02:41:58;;;;;;;3.90;1.65;;;6.20;99.90;;;;;;20648266;28;20056;-44
2022/02/15 02:51:59;;;;;;;4.65;1.77;;;6.30;99.90;;;;;;20643831;28;20034;-44
2022/02/15 03:02:01;;;;;;;6.20;1.90;;;6.30;99.90;;;;;;20650081;28;20050;-44
2022/02/15 03:12:03;;;;;;;6.18;1.77;;;6.30;99.90;;;;;;20647430;28;20030;-44
2022/02/15 03:22:04;;;;;;;4.43;1.80;;;6.20;99.90;;;;;;20681226;28;20046;-44
2022/02/15 03:32:06;;;;;;;3.78;1.40;;;6.30;99.90;;;;;;20683131;28;20068;-44
2022/02/15 03:52:27;;;;;;;8.75;2.35;;;6.40;99.90;;;;;;20687442;28;20565;-44
2022/02/15 04:02:28;;;;;;;3.55;1.35;;;6.50;99.90;;;;;;20675904;28;20058;-44
2022/02/15 04:12:29;;;;;;;3.95;1.63;;;6.50;99.90;;;;;;20653865;28;20536;-44
2022/02/15 04:22:30;;;;;;;4.10;1.65;;;6.40;99.90;;;;;;20684330;28;20050;-44
2022/02/15 04:32:32;;;;;;;15.95;2.10;;;6.50;99.90;;;;;;20685368;28;20533;-44
2022/02/15 04:42:33;;;;;;;4.18;1.55;;;6.40;99.90;;;;;;20686333;28;20061;-44
2022/02/15 04:52:34;;;;;;;4.13;1.73;;;6.30;99.90;;;;;;20691676;28;20034;-44
2022/02/15 05:02:35;;;;;;;5.57;1.55;;;6.30;99.90;;;;;;20677642;28;20054;-44
2022/02/15 05:12:38;;;;;;;3.83;1.52;;;6.30;99.90;;;;;;20685043;28;20039;-44
2022/02/15 05:22:39;;;;;;;6.57;1.90;;;6.40;99.90;;;;;;20689230;28;20050;-44
2022/02/15 05:32:41;;;;;;;6.03;1.92;;;6.40;99.90;;;;;;20688813;28;20573;-44
2022/02/15 05:42:42;;;;;;;4.60;1.63;;;6.40;99.90;;;;;;20680528;28;20053;-44
2022/02/15 05:52:43;;;;;;;5.97;2.13;;;6.40;99.90;;;;;;20673389;28;20496;-44
2022/02/15 06:02:46;;;;;;;5.80;1.45;;;6.60;99.90;;;;;;20671301;28;20042;-44
2022/02/15 06:12:47;;;;;;;9.45;1.73;;;6.70;99.90;;;;;;20678061;28;20037;-44
2022/02/15 06:22:49;;;;;;;2.55;0.60;;;6.70;99.90;;;;;;20676911;28;20346;-44
2022/02/15 06:32:50;;;;;;;9.18;1.42;;;6.80;99.90;;;;;;20672112;28;20034;-44
2022/02/15 06:42:51;;;;;;;7.63;1.02;;;6.80;99.90;;;;;;20669595;28;20453;-44
2022/02/15 06:52:52;;;;;;;2.95;0.85;;;6.80;99.90;;;;;;20667391;28;20045;-44
2022/02/15 07:02:53;;;;;;;2.08;0.52;;;6.80;99.90;;;;;;20673705;28;20429;-44
2022/02/15 07:12:54;;;;;;;8.43;0.90;;;6.70;99.90;;;;;;20664454;28;20042;-44
2022/02/15 07:22:55;;;;;;;4.40;0.63;;;6.50;99.90;;;;;;20649247;28;20457;-44
2022/02/15 07:32:57;;;;;;;2.60;0.57;;;6.40;99.90;;;;;;20652407;28;20045;-44
2022/02/15 07:42:59;;;;;;;5.28;0.68;;;6.40;99.90;;;;;;20629237;28;20057;-44
2022/02/15 07:53:00;;;;;;;4.03;1.23;;;6.60;99.90;;;;;;20631378;28;20046;-44
2022/02/15 08:03:01;;;;;;;4.78;0.88;;;6.60;99.90;;;;;;20643801;28;20053;-44
2022/02/15 08:13:05;;;;;;;2.60;0.90;;;6.60;99.90;;;;;;20635688;28;20042;-44
2022/02/15 08:23:06;;;;;;;13.07;2.05;;;6.70;99.90;;;;;;20631954;28;20406;-44
2022/02/15 08:33:08;;;;;;;4.45;0.82;;;6.70;99.90;;;;;;20646756;28;21607;-44
2022/02/15 08:43:09;;;;;;;2.53;0.80;;;6.80;99.90;;;;;;20649514;28;20049;-44
2022/02/15 08:53:11;;;;;;;7.30;1.52;;;6.90;99.90;;;;;;20642226;28;20495;-44
2022/02/15 09:03:12;;;;;;;4.07;1.83;;;6.90;99.90;;;;;;20646627;28;20057;-44
2022/02/15 09:13:13;;;;;;;5.78;1.23;;;7.10;99.90;;;;;;20652150;28;20038;-44
2022/02/15 09:23:14;;;;;;;17.13;2.28;;;7.70;99.90;;;;;;20642640;28;20046;-44
2022/02/15 09:33:15;;;;;;;3.33;1.35;;;7.50;99.90;;;;;;20628897;28;20757;-44
2022/02/15 09:43:17;;;;;;;4.25;1.23;;;7.20;99.90;;;;;;20636611;28;20046;-44
2022/02/15 09:53:18;;;;;;;15.15;1.73;;;7.40;99.90;;;;;;20656257;28;20049;-44
2022/02/15 10:03:20;;;;;;;5.35;0.55;;;7.80;99.90;;;;;;20645280;28;20215;-44
2022/02/15 10:13:21;;;;;;;4.72;0.50;;;7.80;99.90;;;;;;20675405;28;20042;-44
2022/02/15 10:23:30;;;;;;;10.35;0.63;;;8.00;99.90;;;;;;20662371;28;20038;-44
2022/02/15 10:33:48;;;;;;;1.83;0.35;;;8.30;99.90;;;;;;20640519;28;20072;-44
2022/02/15 10:43:57;;;;;;;1.15;0.40;;;8.30;99.90;;;;;;20635191;28;20046;-44
2022/02/15 10:53:59;;;;;;;3.40;0.63;;;8.50;99.90;;;;;;20639293;28;20042;-44
2022/02/15 11:04:03;;;;;;;3.20;0.30;;;8.90;99.90;;;;;;20640225;28;20049;-45
2022/02/15 11:14:04;;;;;;;2.25;0.70;;;9.20;99.90;;;;;;20644840;28;20030;-44
2022/02/15 11:24:09;;;;;;;4.07;0.77;;;8.60;99.90;;;;;;20635636;28;20046;-44
2022/02/15 11:34:12;;;;;;;3.08;0.20;;;9.00;99.90;;;;;;20625754;28;20053;-44
2022/02/15 11:44:14;;;;;;;0.75;0.38;;;9.20;99.90;;;;;;20620274;28;20069;-44
2022/02/15 11:54:17;;;;;;;1.75;0.30;;;9.20;99.90;;;;;;20637505;28;20374;-45
2022/02/15 12:04:19;;;;;;;2.03;0.60;;;9.40;99.90;;;;;;20660303;28;20517;-44
2022/02/15 12:14:24;;;;;;;1.23;0.45;;;9.40;99.90;;;;;;20650534;28;20064;-44
2022/02/15 12:24:26;;;;;;;3.60;1.00;;;9.60;99.90;;;;;;20651989;28;20049;-44
2022/02/15 12:34:28;;;;;;;0.98;0.50;;;9.70;99.90;;;;;;20687249;28;20046;-45
2022/02/15 12:44:29;;;;;;;1.52;0.73;;;9.90;99.90;;;;;;20654619;28;20164;-45
2022/02/15 12:54:31;;;;;;;2.90;0.40;;;9.80;99.90;;;;;;20678744;28;20030;-45
2022/02/15 13:04:32;;;;;;;3.75;0.88;;;9.60;99.90;;;;;;20646559;28;20646;-45
2022/02/15 13:14:34;;;;;;;1.40;0.75;;;9.50;99.90;;;;;;20672755;28;20489;-45
2022/02/15 13:24:36;;;;;;;5.68;0.95;;;9.30;99.90;;;;;;20707965;28;20076;-45
2022/02/15 13:34:41;;;;;;;5.35;0.85;;;9.40;99.90;;;;;;20659565;28;20054;-45
2022/02/15 13:44:44;;;;;;;1.20;0.40;;;9.40;99.90;;;;;;20703759;28;20058;-45
2022/02/15 13:54:46;;;;;;;11.90;1.15;;;9.50;99.90;;;;;;20716878;28;20104;-45
2022/02/15 14:04:47;;;;;;;1.67;0.55;;;9.50;99.90;;;;;;20653397;28;20057;-45
2022/02/15 14:14:50;;;;;;;4.05;0.47;;;9.60;99.90;;;;;;20630894;28;20550;-46
2022/02/15 14:24:52;;;;;;;2.65;0.90;;;9.50;99.90;;;;;;20660735;28;20050;-45
2022/02/15 14:34:53;;;;;;;2.47;0.82;;;9.50;99.90;;;;;;20687553;28;20050;-45
2022/02/15 14:44:54;;;;;;;4.80;0.80;;;9.50;99.90;;;;;;20656461;28;20373;-45
2022/02/15 14:54:55;;;;;;;3.03;0.60;;;9.40;99.90;;;;;;20668333;28;20034;-45
2022/02/15 15:04:56;;;;;;;4.95;0.73;;;9.20;99.90;;;;;;20660613;28;20047;-45
2022/02/15 15:14:58;;;;;;;5.00;1.35;;;9.00;99.90;;;;;;20684292;28;20030;-45
2022/02/15 15:25:00;;;;;;;4.63;0.95;;;8.70;99.90;;;;;;20671149;28;20561;-45
2022/02/15 15:35:02;;;;;;;1.08;0.40;;;8.40;99.90;;;;;;20619807;28;20061;-45
2022/02/15 15:45:04;;;;;;;3.80;0.82;;;8.20;99.90;;;;;;20708822;28;20510;-45
2022/02/15 15:55:06;;;;;;;4.20;0.93;;;8.20;99.90;;;;;;20638011;28;20069;-45
2022/02/15 16:05:08;;;;;;;2.97;0.77;;;8.10;99.90;;;;;;20694338;28;20061;-44
2022/02/15 16:15:09;;;;;;;2.47;0.90;;;8.10;99.90;;;;;;20612281;28;20549;-44
2022/02/15 16:25:11;;;;;;;2.92;0.88;;;8.00;99.90;;;;;;20595743;28;20275;-45
2022/02/15 16:35:12;;;;;;;3.67;0.70;;;8.00;99.90;;;;;;20576494;28;20050;-46
2022/02/15 16:45:14;;;;;;;1.92;0.70;;;8.00;99.90;;;;;;20658424;28;20053;-46
2022/02/15 16:55:15;;;;;;;6.97;0.70;;;8.00;99.90;;;;;;20695862;28;20105;-47
2022/02/15 17:05:17;;;;;;;2.08;0.70;;;8.10;99.90;;;;;;20743420;28;20114;-47
2022/02/15 17:15:19;;;;;;;2.97;0.50;;;8.00;99.90;;;;;;20706435;28;20042;-46
2022/02/15 17:25:22;;;;;;;4.47;0.60;;;7.90;99.90;;;;;;20691946;28;20125;-47
2022/02/15 17:35:23;;;;;;;4.20;0.57;;;7.90;99.90;;;;;;20688090;28;20208;-46
2022/02/15 17:45:24;;;;;;;5.40;1.45;;;7.80;99.90;;;;;;20675997;28;20050;-47
2022/02/15 17:55:25;;;;;;;1.83;0.90;;;7.80;99.90;;;;;;20667268;28;20052;-46
2022/02/15 18:05:27;;;;;;;2.28;0.70;;;7.90;99.90;;;;;;20679896;28;21840;-46
2022/02/15 18:15:29;;;;;;;1.90;0.70;;;8.00;99.90;;;;;;20663877;28;20036;-46
2022/02/15 18:25:30;;;;;;;2.95;1.00;;;7.90;99.90;;;;;;20666235;28;20375;-46
2022/02/15 18:35:31;;;;;;;1.83;0.80;;;7.90;99.90;;;;;;20694694;28;20053;-48
2022/02/15 18:45:33;;;;;;;1.30;0.68;;;7.80;99.90;;;;;;20717479;28;20375;-45
2022/02/15 18:55:34;;;;;;;3.08;1.17;;;7.90;99.90;;;;;;20710738;28;20423;-46
2022/02/15 19:05:35;;;;;;;2.33;0.95;;;7.90;99.90;;;;;;20695134;28;20045;-46
2022/02/15 19:15:40;;;;;;;3.20;1.13;;;7.90;99.90;;;;;;20717071;28;20064;-46
2022/02/15 19:25:41;;;;;;;2.40;1.20;;;7.90;99.90;;;;;;20700674;28;20053;-46
2022/02/15 19:35:42;;;;;;;6.07;1.30;;;7.90;99.90;;;;;;20667275;28;20042;-46
2022/02/15 19:45:47;;;;;;;5.07;2.00;;;7.90;99.90;;;;;;20672269;28;20049;-47
2022/02/15 19:55:49;;;;;;;3.85;1.30;;;7.90;99.90;;;;;;20681016;28;20042;-46
2022/02/15 20:05:51;;;;;;;9.05;1.95;;;7.90;99.90;;;;;;20699446;28;20379;-46
2022/02/15 20:15:52;;;;;;;7.18;2.47;;;8.00;99.90;;;;;;20639331;28;20050;-46
2022/02/15 20:25:53;;;;;;;4.05;1.80;;;8.00;99.90;;;;;;20727806;28;20054;-45
2022/02/15 20:35:56;;;;;;;6.68;1.92;;;8.00;99.90;;;;;;20741343;28;20046;-46
2022/02/15 20:45:57;;;;;;;5.78;2.28;;;8.10;99.90;;;;;;20671060;28;20042;-45
2022/02/15 20:56:00;;;;;;;6.03;2.13;;;8.10;99.90;;;;;;20649919;28;20041;-45
2022/02/15 21:06:01;;;;;;;5.53;1.90;;;8.30;99.90;;;;;;20656807;28;20045;-45
2022/02/15 21:16:03;;;;;;;5.32;2.35;;;8.30;99.90;;;;;;20666532;28;20040;-45
2022/02/15 21:26:04;;;;;;;12.50;3.17;;;8.20;99.90;;;;;;20663795;28;20422;-45
2022/02/15 21:36:05;;;;;;;4.13;2.03;;;8.30;99.90;;;;;;20661286;28;20524;-45
2022/02/15 21:46:10;;;;;;;5.45;1.80;;;8.20;99.90;;;;;;20658444;28;20049;-45
2022/02/15 21:56:11;;;;;;;2.97;1.15;;;8.30;99.90;;;;;;20668388;28;20036;-45
2022/02/15 22:06:13;;;;;;;3.53;1.63;;;8.40;99.90;;;;;;20693351;28;20041;-46
2022/02/15 22:16:16;;;;;;;3.85;1.65;;;8.40;99.90;;;;;;20688682;28;20034;-45
2022/02/15 22:26:17;;;;;;;4.53;1.75;;;8.40;99.90;;;;;;20688440;28;20049;-45
2022/02/15 22:36:20;;;;;;;4.25;1.52;;;8.50;99.90;;;;;;20692925;28;20053;-46
2022/02/15 22:46:21;;;;;;;3.20;1.60;;;8.50;99.90;;;;;;20680901;28;20042;-45
2022/02/15 22:56:22;;;;;;;9.05;2.38;;;8.50;99.90;;;;;;20727504;28;20053;-45
2022/02/15 23:27:03;;;;;;;8.32;2.97;;;8.40;99.90;;;;;;20730903;28;20056;-45
2022/02/15 23:37:04;;;;;;;7.45;3.03;;;8.50;99.90;;;;;;20743350;28;20611;-46
2022/02/15 23:47:05;;;;;;;4.75;2.42;;;8.50;99.90;;;;;;20737311;28;20049;-45
2022/02/15 23:57:07;;;;;;;5.35;2.17;;;8.50;99.90;;;;;;20748627;28;20041;-46
